createdAt,value
2018-08-13T00:01:10.084Z,92.60
2018-08-13T00:03:38.738Z,92.40
2018-08-13T00:06:14.123Z,92.10
2018-08-13T00:08:42.826Z,92.10
2018-08-13T00:11:11.506Z,92.10
2018-08-13T00:13:40.239Z,91.90
2018-08-13T00:16:09.032Z,91.80
2018-08-13T00:18:37.948Z,92.20
2018-08-13T00:21:06.707Z,91.70
2018-08-13T00:23:35.508Z,91.30
2018-08-13T00:26:04.382Z,91.60
2018-08-13T00:28:33.089Z,91.20
2018-08-13T00:31:01.774Z,91.10
2018-08-13T00:33:30.788Z,91.30
2018-08-13T00:35:59.528Z,91.10
2018-08-13T00:38:28.141Z,91.40
2018-08-13T00:40:56.894Z,91.40
2018-08-13T00:43:25.646Z,91.10
2018-08-13T00:45:54.393Z,91.20
2018-08-13T00:48:23.068Z,90.90
2018-08-13T00:50:51.794Z,91.00
2018-08-13T00:53:20.463Z,91.10
2018-08-13T00:55:49.308Z,91.20
2018-08-13T00:58:18.051Z,91.50
2018-08-13T01:00:46.874Z,91.30
2018-08-13T01:03:15.534Z,90.80
2018-08-13T01:05:44.273Z,90.70
2018-08-13T01:08:13.206Z,90.60
2018-08-13T01:10:42.025Z,90.60
2018-08-13T01:13:10.755Z,91.20
2018-08-13T01:15:39.622Z,91.30
2018-08-13T01:18:08.476Z,90.80
2018-08-13T01:20:37.293Z,90.90
2018-08-13T01:23:06.064Z,91.10
2018-08-13T01:25:34.768Z,90.80
2018-08-13T01:28:04.046Z,90.70
2018-08-13T01:30:32.716Z,90.80
2018-08-13T01:33:01.460Z,91.00
2018-08-13T01:35:30.164Z,90.90
2018-08-13T01:37:58.901Z,90.60
2018-08-13T01:40:27.565Z,90.50
2018-08-13T01:42:56.260Z,90.30
2018-08-13T01:45:25.967Z,90.30
2018-08-13T01:47:54.714Z,90.50
2018-08-13T01:50:23.538Z,90.40
2018-08-13T01:52:52.265Z,91.00
2018-08-13T01:55:21.296Z,90.70
2018-08-13T01:57:50.106Z,90.70
2018-08-13T02:00:19.000Z,90.00
2018-08-13T02:02:47.662Z,90.00
2018-08-13T02:05:16.451Z,90.10
2018-08-13T02:07:45.481Z,90.20
2018-08-13T02:10:14.390Z,90.30
2018-08-13T02:12:43.410Z,90.60
2018-08-13T02:15:12.287Z,90.80
2018-08-13T02:17:41.316Z,91.00
2018-08-13T02:20:10.400Z,91.20
2018-08-13T02:22:39.170Z,91.20
2018-08-13T02:25:08.590Z,91.40
2018-08-13T02:27:37.282Z,91.50
2018-08-13T02:30:08.252Z,91.50
2018-08-13T02:32:37.018Z,91.60
2018-08-13T02:35:07.035Z,91.70
2018-08-13T02:37:35.778Z,92.00
2018-08-13T02:40:05.929Z,92.10
2018-08-13T02:42:34.757Z,92.30
2018-08-13T02:45:03.645Z,92.40
2018-08-13T02:47:32.361Z,92.10
2018-08-13T02:50:01.173Z,92.00
2018-08-13T02:52:30.011Z,92.00
2018-08-13T02:54:58.738Z,92.20
2018-08-13T02:57:27.623Z,92.50
2018-08-13T02:59:56.342Z,92.70
2018-08-13T03:02:25.027Z,92.80
2018-08-13T03:04:53.659Z,93.00
2018-08-13T03:07:22.460Z,93.10
2018-08-13T03:09:51.118Z,93.30
2018-08-13T03:12:20.056Z,93.40
2018-08-13T03:14:48.911Z,93.30
2018-08-13T03:17:30.792Z,93.30
2018-08-13T03:20:00.527Z,93.20
2018-08-13T03:22:30.384Z,93.20
2018-08-13T03:25:00.817Z,93.20
2018-08-13T03:27:30.101Z,93.10
2018-08-13T03:29:59.930Z,93.00
2018-08-13T03:32:28.695Z,92.90
2018-08-13T03:34:57.538Z,93.40
2018-08-13T03:37:26.384Z,93.30
2018-08-13T03:39:55.176Z,93.60
2018-08-13T03:42:23.881Z,93.80
2018-08-13T03:44:52.511Z,93.80
2018-08-13T03:47:21.337Z,93.80
2018-08-13T03:49:50.015Z,93.60
2018-08-13T03:52:18.683Z,93.10
2018-08-13T03:54:47.383Z,92.90
2018-08-13T03:57:16.077Z,93.20
2018-08-13T03:59:44.726Z,93.30
2018-08-13T04:02:13.462Z,93.40
2018-08-13T04:04:42.144Z,93.50
2018-08-13T04:07:10.792Z,93.80
2018-08-13T04:09:39.466Z,94.00
2018-08-13T04:12:08.182Z,94.00
2018-08-13T04:14:36.811Z,94.00
2018-08-13T04:17:05.672Z,93.90
2018-08-13T04:19:34.719Z,94.00
2018-08-13T04:22:03.605Z,94.20
2018-08-13T04:24:32.396Z,94.30
2018-08-13T04:27:01.185Z,94.40
2018-08-13T04:29:30.079Z,94.80
2018-08-13T04:31:58.851Z,95.20
2018-08-13T04:34:27.505Z,95.20
2018-08-13T04:36:56.249Z,95.10
2018-08-13T04:39:24.948Z,95.10
2018-08-13T04:41:53.594Z,94.80
2018-08-13T04:44:22.266Z,94.70
2018-08-13T04:46:50.998Z,94.70
2018-08-13T04:49:20.376Z,95.00
2018-08-13T04:51:49.114Z,95.10
2018-08-13T04:54:26.676Z,95.10
2018-08-13T04:57:00.810Z,95.10
2018-08-13T04:59:29.452Z,94.40
2018-08-13T05:01:58.153Z,94.10
2018-08-13T05:04:26.829Z,94.20
2018-08-13T05:07:04.985Z,94.00
2018-08-13T05:09:33.715Z,93.90
2018-08-13T05:12:02.691Z,94.20
2018-08-13T05:14:31.268Z,94.50
2018-08-13T05:16:59.990Z,94.60
2018-08-13T05:19:29.146Z,94.70
2018-08-13T05:21:57.982Z,94.60
2018-08-13T05:24:26.631Z,95.10
2018-08-13T05:26:55.238Z,95.50
2018-08-13T05:29:38.029Z,95.60
2018-08-13T05:32:06.873Z,95.70
2018-08-13T05:34:35.668Z,95.60
2018-08-13T05:37:04.522Z,95.30
2018-08-13T05:39:34.245Z,95.30
2018-08-13T05:42:03.068Z,95.50
2018-08-13T05:44:31.739Z,95.70
2018-08-13T05:47:02.067Z,95.70
2018-08-13T05:49:30.850Z,95.80
2018-08-13T05:51:59.593Z,96.20
2018-08-13T05:54:28.308Z,96.70
2018-08-13T05:56:58.458Z,96.80
2018-08-13T05:59:27.116Z,97.20
2018-08-13T06:01:56.001Z,97.50
2018-08-13T06:04:24.710Z,97.90
2018-08-13T06:06:53.480Z,98.10
2018-08-13T06:09:22.155Z,97.90
2018-08-13T06:11:51.215Z,98.20
2018-08-13T06:14:19.991Z,97.40
2018-08-13T06:16:48.869Z,97.40
2018-08-13T06:19:17.638Z,95.90
2018-08-13T06:21:46.413Z,97.30
2018-08-13T06:24:15.180Z,97.10
2018-08-13T06:26:44.107Z,96.20
2018-08-13T06:29:12.785Z,96.80
2018-08-13T06:31:41.588Z,96.90
2018-08-13T06:34:10.271Z,97.30
2018-08-13T06:36:39.025Z,97.90
2018-08-13T06:39:09.459Z,97.70
2018-08-13T06:41:38.232Z,97.80
2018-08-13T06:44:07.141Z,97.90
2018-08-13T06:46:36.541Z,98.00
2018-08-13T06:49:05.533Z,98.40
2018-08-13T06:51:35.012Z,98.80
2018-08-13T06:54:03.958Z,99.10
2018-08-13T06:56:32.821Z,99.60
2018-08-13T06:59:01.424Z,99.90
2018-08-13T07:01:30.248Z,99.90
2018-08-13T07:03:59.005Z,99.90
2018-08-13T07:06:27.787Z,99.90
2018-08-13T07:08:56.474Z,99.90
2018-08-13T07:11:25.273Z,99.90
2018-08-13T07:13:54.150Z,99.90
2018-08-13T07:16:22.903Z,99.90
2018-08-13T07:18:51.807Z,99.90
2018-08-13T07:21:20.543Z,99.90
2018-08-13T07:23:49.331Z,99.90
2018-08-13T07:26:18.076Z,99.90
2018-08-13T07:28:46.772Z,99.90
2018-08-13T07:31:15.554Z,99.90
2018-08-13T07:33:44.350Z,99.90
2018-08-13T07:36:13.052Z,99.90
2018-08-13T07:38:41.636Z,99.90
2018-08-13T07:41:10.420Z,99.90
2018-08-13T07:43:39.206Z,99.90
2018-08-13T07:46:08.014Z,99.90
2018-08-13T07:48:36.680Z,99.90
2018-08-13T07:51:05.347Z,99.90
2018-08-13T07:53:34.033Z,99.90
2018-08-13T07:56:02.745Z,99.90
2018-08-13T07:58:31.482Z,99.90
2018-08-13T08:01:00.233Z,99.90
2018-08-13T08:03:29.031Z,99.90
2018-08-13T08:05:58.210Z,99.90
2018-08-13T08:08:26.914Z,99.90
2018-08-13T08:10:55.723Z,99.90
2018-08-13T08:13:24.552Z,99.90
2018-08-13T08:15:53.578Z,99.90
2018-08-13T08:18:22.291Z,99.90
2018-08-13T08:20:51.116Z,99.90
2018-08-13T08:23:19.823Z,99.90
2018-08-13T08:25:49.018Z,99.90
2018-08-13T08:28:17.757Z,99.90
2018-08-13T08:30:46.526Z,99.90
2018-08-13T08:33:15.372Z,99.90
2018-08-13T08:35:44.022Z,99.90
2018-08-13T08:38:12.754Z,99.90
2018-08-13T08:40:41.447Z,99.90
2018-08-13T08:43:10.507Z,99.90
2018-08-13T08:45:39.308Z,99.90
2018-08-13T08:48:09.066Z,99.90
2018-08-13T08:50:37.982Z,99.90
2018-08-13T08:53:06.869Z,99.90
2018-08-13T08:55:35.617Z,99.90
2018-08-13T08:58:04.313Z,99.90
2018-08-13T09:00:32.995Z,99.90
2018-08-13T09:03:01.827Z,99.90
2018-08-13T09:05:30.535Z,99.90
2018-08-13T09:07:59.578Z,99.90
2018-08-13T09:10:28.306Z,99.90
2018-08-13T09:12:57.228Z,99.90
2018-08-13T09:15:26.000Z,99.90
2018-08-13T09:18:05.992Z,99.90
2018-08-13T09:20:45.877Z,99.90
2018-08-13T09:23:25.705Z,99.90
2018-08-13T09:26:05.643Z,99.90
2018-08-13T09:28:45.656Z,99.90
2018-08-13T09:31:23.964Z,99.90
2018-08-13T09:35:04.464Z,99.90
2018-08-13T09:37:33.131Z,99.90
2018-08-13T09:40:01.925Z,99.90
2018-08-13T09:42:31.115Z,99.90
2018-08-13T09:44:59.781Z,99.90
2018-08-13T09:47:29.519Z,99.90
2018-08-13T09:49:58.473Z,99.90
2018-08-13T09:52:27.217Z,99.90
2018-08-13T09:54:56.192Z,99.90
2018-08-13T09:57:25.081Z,99.90
2018-08-13T09:59:53.806Z,99.90
2018-08-13T10:02:22.527Z,99.90
2018-08-13T10:04:51.308Z,99.90
2018-08-13T10:07:20.060Z,99.90
2018-08-13T10:09:48.904Z,99.90
2018-08-13T10:12:17.708Z,99.90
2018-08-13T10:14:46.415Z,99.90
2018-08-13T10:17:15.627Z,99.90
2018-08-13T10:19:44.477Z,99.90
2018-08-13T10:22:13.128Z,99.90
2018-08-13T10:24:41.981Z,99.90
2018-08-13T10:27:10.757Z,99.90
2018-08-13T10:29:39.474Z,99.90
2018-08-13T10:32:08.226Z,99.90
2018-08-13T10:34:37.624Z,99.90
2018-08-13T10:37:06.409Z,99.90
2018-08-13T10:39:35.261Z,99.90
2018-08-13T10:42:04.131Z,99.90
2018-08-13T10:44:32.873Z,99.90
2018-08-13T10:47:01.518Z,99.90
2018-08-13T10:49:30.290Z,99.90
2018-08-13T10:51:59.238Z,99.90
2018-08-13T10:54:27.986Z,99.90
2018-08-13T10:56:56.806Z,99.90
2018-08-13T10:59:25.544Z,99.90
2018-08-13T11:01:54.192Z,99.90
2018-08-13T11:04:22.934Z,99.90
2018-08-13T11:06:51.723Z,99.90
2018-08-13T11:09:20.509Z,99.90
2018-08-13T11:11:49.330Z,99.90
2018-08-13T11:14:18.049Z,99.90
2018-08-13T11:16:46.872Z,99.90
2018-08-13T11:19:15.670Z,99.90
2018-08-13T11:21:44.385Z,99.90
2018-08-13T11:24:13.099Z,99.90
2018-08-13T11:26:41.782Z,99.90
2018-08-13T11:29:10.646Z,99.90
2018-08-13T11:31:39.510Z,99.90
2018-08-13T11:34:08.324Z,99.90
2018-08-13T11:36:37.214Z,99.90
2018-08-13T11:39:10.354Z,99.90
2018-08-13T11:41:39.477Z,99.90
2018-08-13T11:44:08.302Z,99.90
2018-08-13T11:46:37.092Z,99.90
2018-08-13T11:49:06.008Z,99.90
2018-08-13T11:51:34.736Z,99.90
2018-08-13T11:54:04.098Z,99.90
2018-08-13T11:56:32.998Z,99.90
2018-08-13T11:59:02.561Z,99.90
2018-08-13T12:01:31.345Z,99.90
2018-08-13T12:04:00.033Z,99.90
2018-08-13T12:06:28.739Z,99.90
2018-08-13T12:08:57.399Z,99.90
2018-08-13T12:11:26.183Z,99.90
2018-08-13T12:13:54.915Z,99.90
2018-08-13T12:16:23.681Z,99.90
2018-08-13T12:18:52.385Z,99.90
2018-08-13T12:21:21.022Z,99.90
2018-08-13T12:23:49.719Z,99.90
2018-08-13T12:26:18.360Z,99.90
2018-08-13T12:28:47.218Z,99.90
2018-08-13T12:31:16.101Z,99.90
2018-08-13T12:33:44.873Z,99.90
2018-08-13T12:36:13.491Z,99.90
2018-08-13T12:38:42.267Z,99.90
2018-08-13T12:41:10.982Z,99.90
2018-08-13T12:43:39.664Z,99.90
2018-08-13T12:46:08.855Z,99.90
2018-08-13T12:48:37.582Z,99.90
2018-08-13T12:51:06.471Z,99.90
2018-08-13T12:53:35.351Z,99.90
2018-08-13T12:56:04.283Z,99.90
2018-08-13T12:58:33.130Z,99.90
2018-08-13T13:01:05.991Z,99.90
2018-08-13T13:03:34.668Z,99.90
2018-08-13T13:06:03.694Z,99.90
2018-08-13T13:08:32.573Z,99.90
2018-08-13T13:11:01.273Z,99.90
2018-08-13T13:13:30.009Z,99.90
2018-08-13T13:15:58.944Z,99.90
2018-08-13T13:18:27.680Z,99.90
2018-08-13T13:20:56.400Z,99.90
2018-08-13T13:23:25.130Z,99.90
2018-08-13T13:25:53.916Z,99.90
2018-08-13T13:28:22.651Z,99.90
2018-08-13T13:30:51.336Z,99.90
2018-08-13T13:33:20.072Z,99.90
2018-08-13T13:35:49.174Z,99.90
2018-08-13T13:38:17.818Z,99.90
2018-08-13T13:40:46.687Z,99.90
2018-08-13T13:43:15.607Z,99.90
2018-08-13T13:45:44.273Z,99.90
2018-08-13T13:48:12.904Z,99.90
2018-08-13T13:50:41.644Z,99.90
2018-08-13T13:53:10.310Z,99.90
2018-08-13T13:55:39.224Z,99.90
2018-08-13T13:58:08.224Z,99.90
2018-08-13T14:00:36.913Z,99.90
2018-08-13T14:03:06.124Z,99.90
2018-08-13T14:05:35.238Z,99.90
2018-08-13T14:08:03.991Z,99.90
2018-08-13T14:10:32.807Z,99.90
2018-08-13T14:13:01.678Z,99.90
2018-08-13T14:15:30.477Z,99.90
2018-08-13T14:17:59.148Z,99.90
2018-08-13T14:20:28.203Z,99.90
2018-08-13T14:22:56.985Z,99.90
2018-08-13T14:25:25.785Z,99.90
2018-08-13T14:27:54.512Z,99.90
2018-08-13T14:30:25.961Z,99.90
2018-08-13T14:32:54.932Z,99.90
2018-08-13T14:35:24.860Z,99.90
2018-08-13T14:37:53.752Z,99.90
2018-08-13T14:40:22.537Z,99.90
2018-08-13T14:42:51.438Z,99.90
2018-08-13T14:45:20.375Z,99.90
2018-08-13T14:47:50.692Z,99.90
2018-08-13T14:50:19.711Z,99.90
2018-08-13T14:52:49.319Z,99.90
2018-08-13T14:55:20.018Z,99.90
2018-08-13T14:57:48.954Z,99.90
2018-08-13T15:00:22.654Z,99.90
2018-08-13T15:02:51.956Z,99.90
2018-08-13T15:05:20.915Z,99.90
2018-08-13T15:07:49.627Z,99.90
2018-08-13T15:10:20.291Z,99.90
2018-08-13T15:12:49.212Z,99.90
2018-08-13T15:15:18.118Z,99.90
2018-08-13T15:17:46.950Z,99.90
2018-08-13T15:20:20.406Z,99.90
2018-08-13T15:22:49.057Z,99.90
2018-08-13T15:25:17.934Z,99.90
2018-08-13T15:27:46.851Z,99.90
2018-08-13T15:30:16.971Z,99.90
2018-08-13T15:32:46.767Z,99.90
2018-08-13T15:35:15.610Z,99.90
2018-08-13T15:37:45.021Z,99.90
2018-08-13T15:40:13.820Z,99.90
2018-08-13T15:42:42.827Z,99.90
2018-08-13T15:45:16.042Z,99.90
2018-08-13T15:47:45.061Z,99.90
2018-08-13T15:50:15.770Z,99.90
2018-08-13T15:52:44.942Z,99.90
2018-08-13T15:55:14.473Z,99.90
2018-08-13T15:57:43.803Z,99.90
2018-08-13T16:00:27.749Z,99.90
2018-08-13T16:02:56.569Z,99.90
2018-08-13T16:05:25.465Z,99.90
2018-08-13T16:07:54.366Z,99.90
2018-08-13T16:10:23.208Z,99.90
2018-08-13T16:12:52.021Z,99.90
2018-08-13T16:15:20.781Z,99.90
2018-08-13T16:17:49.621Z,99.90
2018-08-13T16:20:19.414Z,99.90
2018-08-13T16:22:49.145Z,99.90
2018-08-13T16:25:18.443Z,99.90
2018-08-13T16:27:47.830Z,99.90
2018-08-13T16:30:23.379Z,99.90
2018-08-13T16:32:52.341Z,99.90
2018-08-13T16:35:21.841Z,99.90
2018-08-13T16:37:50.657Z,99.90
2018-08-13T16:40:20.989Z,99.90
2018-08-13T16:42:50.200Z,99.90
2018-08-13T16:45:20.355Z,99.90
2018-08-13T16:47:49.199Z,99.90
2018-08-13T16:50:21.291Z,99.90
2018-08-13T16:52:50.223Z,99.90
2018-08-13T16:55:19.015Z,99.90
2018-08-13T16:57:47.943Z,99.90
2018-08-13T17:00:21.049Z,99.90
2018-08-13T17:02:49.982Z,99.90
2018-08-13T17:05:18.672Z,99.90
2018-08-13T17:07:47.902Z,99.90
2018-08-13T17:10:19.002Z,99.90
2018-08-13T17:12:48.140Z,99.90
2018-08-13T17:15:16.973Z,99.90
2018-08-13T17:17:47.373Z,99.90
2018-08-13T17:20:18.138Z,99.90
2018-08-13T17:22:46.747Z,99.90
2018-08-13T17:25:16.279Z,99.90
2018-08-13T17:27:45.106Z,99.90
2018-08-13T17:30:16.636Z,99.90
2018-08-13T17:32:46.494Z,99.90
2018-08-13T17:35:17.249Z,99.90
2018-08-13T17:37:46.127Z,99.90
2018-08-13T17:40:18.072Z,99.90
2018-08-13T17:42:47.150Z,99.90
2018-08-13T17:45:16.099Z,99.90
2018-08-13T17:47:44.814Z,99.90
2018-08-13T17:50:16.250Z,99.90
2018-08-13T17:52:45.079Z,99.90
2018-08-13T17:55:14.612Z,99.90
2018-08-13T17:57:44.120Z,99.90
2018-08-13T18:00:16.853Z,99.90
2018-08-13T18:02:45.606Z,99.90
2018-08-13T18:05:16.899Z,99.90
2018-08-13T18:07:45.815Z,99.90
2018-08-13T18:10:20.733Z,99.90
2018-08-13T18:12:49.490Z,99.90
2018-08-13T18:15:18.468Z,99.90
2018-08-13T18:17:47.638Z,99.90
2018-08-13T18:20:16.351Z,99.90
2018-08-13T18:22:45.409Z,99.90
2018-08-13T18:25:14.884Z,99.90
2018-08-13T18:27:44.808Z,99.90
2018-08-13T18:30:19.950Z,99.90
2018-08-13T18:32:48.774Z,99.90
2018-08-13T18:35:17.846Z,99.90
2018-08-13T18:37:46.712Z,99.90
2018-08-13T18:40:18.985Z,99.90
2018-08-13T18:42:47.824Z,99.90
2018-08-13T18:45:16.734Z,99.90
2018-08-13T18:47:45.615Z,99.90
2018-08-13T18:50:17.958Z,99.90
2018-08-13T18:52:46.973Z,99.90
2018-08-13T18:55:18.167Z,99.90
2018-08-13T18:57:47.426Z,99.90
2018-08-13T19:00:17.618Z,99.90
2018-08-13T19:02:46.463Z,99.90
2018-08-13T19:05:16.924Z,99.90
2018-08-13T19:07:46.421Z,99.90
2018-08-13T19:10:16.005Z,99.90
2018-08-13T19:12:44.738Z,99.90
2018-08-13T19:15:15.089Z,99.90
2018-08-13T19:17:43.766Z,99.90
2018-08-13T19:20:13.683Z,99.90
2018-08-13T19:22:43.080Z,99.90
2018-08-13T19:25:17.533Z,99.90
2018-08-13T19:27:46.263Z,99.90
2018-08-13T19:30:28.701Z,99.90
2018-08-13T19:32:59.577Z,99.90
2018-08-13T19:35:29.867Z,99.90
2018-08-13T19:37:59.143Z,99.90
2018-08-13T19:40:27.920Z,99.90
2018-08-13T19:43:17.589Z,99.90
2018-08-13T19:45:47.938Z,99.90
2018-08-13T19:48:16.891Z,99.90
2018-08-13T19:50:45.715Z,99.90
2018-08-13T19:53:15.992Z,99.90
2018-08-13T19:55:45.127Z,99.90
2018-08-13T20:01:05.918Z,99.90
2018-08-13T20:03:34.570Z,99.90
2018-08-13T20:06:03.585Z,99.90
2018-08-13T20:08:32.266Z,99.90
2018-08-13T20:11:01.414Z,99.90
2018-08-13T20:13:30.205Z,99.90
2018-08-13T20:15:59.277Z,99.90
2018-08-13T20:18:28.048Z,99.90
2018-08-13T20:20:56.824Z,99.90
2018-08-13T20:23:25.700Z,99.90
2018-08-13T20:25:54.529Z,99.90
2018-08-13T20:28:23.358Z,99.90
2018-08-13T20:30:52.085Z,99.90
2018-08-13T20:33:21.186Z,99.90
2018-08-13T20:35:50.089Z,99.90
2018-08-13T20:38:19.118Z,99.90
2018-08-13T20:40:48.068Z,99.90
2018-08-13T20:43:16.931Z,99.90
2018-08-13T20:45:45.606Z,99.90
2018-08-13T20:48:14.508Z,99.90
2018-08-13T20:50:43.279Z,99.90
2018-08-13T20:53:11.985Z,99.90
2018-08-13T20:55:40.728Z,99.90
2018-08-13T20:58:09.538Z,99.90
2018-08-13T21:00:38.609Z,99.90
2018-08-13T21:03:07.647Z,99.90
2018-08-13T21:05:36.344Z,99.90
2018-08-13T21:08:05.093Z,99.90
2018-08-13T21:10:33.896Z,99.90
2018-08-13T21:13:04.359Z,99.90
2018-08-13T21:15:33.152Z,99.90
2018-08-13T21:18:05.103Z,99.90
2018-08-13T21:20:33.958Z,99.90
2018-08-13T21:23:02.694Z,99.90
2018-08-13T21:25:31.368Z,99.90
2018-08-13T21:28:00.251Z,99.90
2018-08-13T21:30:29.015Z,99.90
2018-08-13T21:32:57.750Z,99.90
2018-08-13T21:35:26.693Z,99.90
2018-08-13T21:37:55.505Z,99.90
2018-08-13T21:40:24.290Z,99.90
2018-08-13T21:42:54.147Z,99.90
2018-08-13T21:45:22.789Z,99.90
2018-08-13T21:47:52.546Z,99.90
2018-08-13T21:50:22.417Z,99.90
2018-08-13T21:52:51.811Z,99.90
2018-08-13T21:55:20.835Z,99.90
2018-08-13T21:57:49.570Z,99.90
2018-08-13T22:00:24.740Z,99.90
2018-08-13T22:02:54.117Z,99.90
2018-08-13T22:05:22.930Z,99.90
2018-08-13T22:07:51.619Z,99.90
2018-08-13T22:10:20.301Z,99.90
2018-08-13T22:12:49.050Z,99.90
2018-08-13T22:15:25.154Z,99.90
2018-08-13T22:17:56.317Z,99.90
2018-08-13T22:20:25.577Z,99.90
2018-08-13T22:22:54.359Z,99.90
2018-08-13T22:25:26.346Z,99.90
2018-08-13T22:27:54.972Z,99.90
2018-08-13T22:30:23.920Z,99.90
2018-08-13T22:32:52.544Z,99.90
2018-08-13T22:35:21.317Z,99.90
2018-08-13T22:37:50.029Z,99.90
2018-08-13T22:40:20.654Z,99.90
2018-08-13T22:42:49.445Z,99.90
2018-08-13T22:45:20.352Z,99.90
2018-08-13T22:47:49.072Z,99.90
2018-08-13T22:50:17.869Z,99.90
2018-08-13T22:52:46.633Z,99.90
2018-08-13T22:55:17.291Z,99.90
2018-08-13T22:57:46.128Z,99.90
2018-08-13T23:00:16.298Z,99.90
2018-08-13T23:02:45.734Z,99.90
2018-08-13T23:05:16.022Z,99.90
2018-08-13T23:07:44.754Z,99.90
2018-08-13T23:10:16.041Z,99.90
2018-08-13T23:12:45.439Z,99.90
2018-08-13T23:15:15.434Z,99.90
2018-08-13T23:17:44.501Z,99.90
2018-08-13T23:20:18.124Z,99.90
2018-08-13T23:22:50.743Z,99.90
2018-08-13T23:25:19.873Z,99.90
2018-08-13T23:27:52.857Z,99.90
2018-08-13T23:30:21.671Z,99.90
2018-08-13T23:32:51.534Z,99.90
2018-08-13T23:35:24.481Z,99.90
2018-08-13T23:37:53.945Z,99.90
2018-08-13T23:40:22.941Z,99.90
2018-08-13T23:42:51.681Z,99.90
2018-08-13T23:45:21.573Z,99.90
2018-08-13T23:47:50.279Z,99.90
2018-08-13T23:50:20.878Z,99.90
2018-08-13T23:52:51.158Z,99.90
2018-08-13T23:55:22.196Z,99.90
2018-08-13T23:57:50.986Z,99.90
